Aurora, CO (80011)

7:22 PM MDT on August 04, 2015 (GMT -0600)
Arapahoe2 | | Change Station
CLOSE
Current Station
Personal Weather Station
Location: Aurora, CO
Elevation: 5531 ft
Nearby Weather Stations

Elev 5531 ft 39.73 °N, 104.77 °W | Updated 1 second ago

Partly Cloudy
Partly Cloudy
85.5 °F
Feels Like 82 °F
N
0.9
Wind Variable Wind from WSW
Gusts 9.0 mph

Today
High -- | Low -- °F
--% Chance of Precip.
Yesterday
High -- | Low -- °F
Precip. -- in
6:00 AM 8:09 PM
Waning Gibbous, 72% visible
Pressure 29.87 in
Visibility 10.0 miles
Clouds Few 8000 ft
Few 22000 ft
Heat Index 82 °F
Dew Point 38 °F
Humidity 19%
Rainfall 0.00 in
Snow Depth Not available.
UV 1 out of 12
Pollen 7.60 out of 12
Air Quality Not available.
Flu Activity Not available.
METAR KBKF 050058Z 01007KT 10SM FEW080 FEW220 30/05 A3010 RMK AO2A SLP113 T02990048

More Conditions Fewer Conditions

Pressure 29.87 in
Visibility 10.0 miles
Clouds Few 8000 ft
Few 22000 ft
Heat Index 82 °F
Dew Point 38 °F
Humidity 19%
Rainfall 0.00 in
Snow Depth Not available.
UV 1 out of 12
Pollen 7.60 out of 12
Air Quality Not available.
Flu Activity Not available.
METAR KBKF 050058Z 01007KT 10SM FEW080 FEW220 30/05 A3010 RMK AO2A SLP113 T02990048

More Conditions Fewer Conditions

10-Day Weather Forecast

×

Almanac

Astronomy

Aug. 04, 2015 Rise Set
Actual Time
Civil Twilight
Nautical Twilight
Astronomical Twilight
Moon
Length of Visible Light
Length of Day
Tomorrow will be .
, % of the Moon is Illuminated

Today's Extremes

State Highs State Lows

Community

WunderPhotos

Upload Photos

1,844,060 photos uploaded!

WunderBlogs® & News

Nearby

Air Quality

  Air Quality AQ Index Pollutant
Not available.

Snow Depth

Station Depth Elevation

Earthquake Activity

City Distance Mag. Time & Date
Minimum magnitude displayed is 2.5.

Coastal Water Temperatures

Place Temperature

Stations

Nearby Weather Stations

Station Location Temp. Windchill Dew Point Humidity Wind Precip. Elev Updated Type